Time;durP1;ratioP1;P1;durP2;ratioP2;P2;SDS_P1;SDS_P2;PMS_P1;PMS_P2;Temp;Humidity;BMP_temperature;BMP_pressure;BME280_temperature;BME280_humidity;BME280_pressure;Samples;Min_cycle;Max_cycle;Signal;HPM_P1;HPM_P2
2021/03/19 00:02:08;;;;;;;5.68;4.45;;;;;;;4.72;80.17;100391.78;4977477;28;20033;-72
2021/03/19 00:04:33;;;;;;;6.00;4.55;;;;;;;4.63;80.25;100388.69;4993422;28;20015;-72
2021/03/19 00:06:59;;;;;;;5.95;4.35;;;;;;;4.57;80.07;100391.75;4993078;28;20027;-75
2021/03/19 00:09:24;;;;;;;5.28;4.00;;;;;;;4.46;80.50;100387.66;4993079;28;20022;-70
2021/03/19 00:11:50;;;;;;;8.63;6.05;;;;;;;4.46;80.51;100374.88;4992922;28;20105;-72
2021/03/19 00:14:15;;;;;;;32.42;14.23;;;;;;;4.51;80.43;100368.38;5008299;28;20045;-70
2021/03/19 00:16:41;;;;;;;8.43;5.65;;;;;;;4.62;79.70;100384.34;4993044;28;20026;-75
2021/03/19 00:19:09;;;;;;;7.38;5.15;;;;;;;4.41;79.83;100353.28;4985210;28;20100;-71
2021/03/19 00:21:36;;;;;;;5.88;4.50;;;;;;;4.56;80.07;100381.44;4990737;28;20022;-70
2021/03/19 00:24:02;;;;;;;19.75;12.57;;;;;;;4.56;79.26;100363.53;4977017;28;20038;-72
2021/03/19 00:26:28;;;;;;;14.43;12.38;;;;;;;4.68;79.10;100382.16;4991730;28;20566;-74
2021/03/19 00:28:53;;;;;;;6.45;4.60;;;;;;;4.66;79.47;100376.97;4974666;28;20066;-74
2021/03/19 00:31:19;;;;;;;5.50;4.22;;;;;;;4.51;79.48;100341.16;4984958;28;20030;-70
2021/03/19 00:33:45;;;;;;;6.15;4.57;;;;;;;4.76;79.35;100370.72;4989913;28;20038;-73
2021/03/19 00:36:10;;;;;;;5.93;4.30;;;;;;;4.74;78.95;100368.88;4992509;28;20031;-74
2021/03/19 00:38:36;;;;;;;6.07;4.45;;;;;;;4.62;79.29;100348.56;4955395;28;20046;-73
2021/03/19 00:41:02;;;;;;;5.88;4.32;;;;;;;4.75;79.09;100375.72;4976103;28;20118;-70
2021/03/19 00:43:27;;;;;;;9.82;4.65;;;;;;;4.66;78.46;100369.28;4973657;28;20034;-74
2021/03/19 00:45:53;;;;;;;9.10;4.53;;;;;;;4.60;78.55;100368.94;4973371;28;20031;-73
2021/03/19 00:48:18;;;;;;;6.15;4.30;;;;;;;4.48;79.40;100343.50;4987180;28;20030;-74
2021/03/19 00:50:44;;;;;;;6.00;4.65;;;;;;;4.66;79.69;100360.72;4977157;28;20081;-74
2021/03/19 00:53:10;;;;;;;6.43;4.72;;;;;;;4.64;78.97;100358.09;4971800;28;20035;-77
2021/03/19 00:55:36;;;;;;;5.50;4.30;;;;;;;4.50;78.95;100357.28;4970045;28;20130;-74
2021/03/19 00:58:02;;;;;;;8.70;4.82;;;;;;;4.36;79.35;100348.78;4973939;28;20502;-72
2021/03/19 01:00:31;;;;;;;15.43;6.10;;;;;;;4.37;79.15;100353.13;4971821;28;20094;-74
2021/03/19 01:02:56;;;;;;;12.50;5.82;;;;;;;3.82;79.88;100344.63;4972058;28;20034;-71
2021/03/19 01:05:29;;;;;;;9.55;5.45;;;;;;;3.88;80.67;100357.78;4970370;28;20034;-74
2021/03/19 01:07:55;;;;;;;9.10;5.03;;;;;;;3.77;80.52;100361.34;4969776;28;20066;-76
2021/03/19 01:10:36;;;;;;;8.17;5.20;;;;;;;3.46;81.42;100347.53;4985590;28;20069;-75
2021/03/19 01:13:02;;;;;;;10.23;5.30;;;;;;;3.20;82.15;100348.41;4989588;28;20592;-72
2021/03/19 01:15:29;;;;;;;7.43;5.13;;;;;;;3.12;82.40;100340.25;4957809;28;20038;-71
2021/03/19 01:17:54;;;;;;;7.53;5.20;;;;;;;3.15;82.82;100363.41;4971837;28;20133;-73
2021/03/19 01:20:21;;;;;;;7.00;5.10;;;;;;;3.12;83.10;100357.25;4971839;28;20426;-70
2021/03/19 01:22:46;;;;;;;8.63;6.03;;;;;;;3.11;83.30;100351.25;4971009;28;20031;-73
2021/03/19 01:25:17;;;;;;;9.87;6.37;;;;;;;2.99;83.50;100353.00;4971102;28;20121;-74
2021/03/19 01:27:44;;;;;;;10.37;5.73;;;;;;;2.85;84.04;100357.19;4971043;28;20579;-72
2021/03/19 01:30:14;;;;;;;10.00;5.83;;;;;;;2.52;84.93;100310.88;4970305;28;20105;-76
2021/03/19 01:32:40;;;;;;;8.02;5.13;;;;;;;2.66;85.09;100348.31;4989428;28;20077;-76
2021/03/19 01:35:06;;;;;;;7.93;5.63;;;;;;;2.59;85.40;100352.16;4991472;28;20061;-74
2021/03/19 01:37:32;;;;;;;9.40;5.97;;;;;;;2.53;85.63;100358.47;4990479;28;20089;-75
2021/03/19 01:39:58;;;;;;;7.93;5.67;;;;;;;2.60;85.36;100368.31;4990350;28;20030;-76
2021/03/19 01:42:24;;;;;;;7.93;5.50;;;;;;;2.55;85.01;100362.03;4991701;28;20508;-77
2021/03/19 01:44:52;;;;;;;13.70;11.83;;;;;;;2.58;85.27;100363.13;4991747;28;20035;-75
2021/03/19 01:47:55;;;;;;;28.43;25.37;;;;;;;2.50;85.27;100359.16;5007147;28;20541;-74
2021/03/19 01:50:58;;;;;;;15.67;10.27;;;;;;;2.45;85.79;100357.97;4990649;28;20105;-78
2021/03/19 01:54:01;;;;;;;9.83;7.23;;;;;;;2.43;86.00;100362.97;4987991;28;20030;-78
2021/03/19 01:57:04;;;;;;;8.57;6.30;;;;;;;2.40;85.98;100356.78;5006844;28;20398;-74
2021/03/19 02:00:06;;;;;;;9.17;5.43;;;;;;;2.28;86.75;100349.19;5001136;28;20401;-73
2021/03/19 02:03:23;;;;;;;12.63;6.30;;;;;;;2.22;88.25;100354.75;4998737;28;20023;-77
2021/03/19 02:06:25;;;;;;;9.37;6.40;;;;;;;2.13;88.71;100340.50;4941446;28;20051;-77
2021/03/19 02:09:28;;;;;;;8.73;6.37;;;;;;;2.22;88.14;100341.13;4934160;29;20035;-77
2021/03/19 02:12:31;;;;;;;8.57;6.03;;;;;;;2.18;88.48;100344.22;4934175;28;20027;-76
2021/03/19 02:15:34;;;;;;;8.03;5.80;;;;;;;2.13;88.38;100345.59;4950007;28;20039;-76
2021/03/19 02:18:37;;;;;;;8.10;5.93;;;;;;;2.04;88.44;100348.38;4947182;28;20035;-77
2021/03/19 02:21:39;;;;;;;8.27;5.80;;;;;;;1.98;88.87;100340.31;4953896;28;20435;-77
2021/03/19 02:24:42;;;;;;;10.17;5.93;;;;;;;1.98;88.69;100346.31;4954676;28;20039;-77
2021/03/19 02:27:45;;;;;;;8.17;5.87;;;;;;;1.91;89.00;100344.13;4954484;28;20046;-78
2021/03/19 02:30:48;;;;;;;10.63;6.63;;;;;;;1.88;88.96;100334.59;4954361;29;20043;-77
2021/03/19 02:33:13;;;;;;;12.83;8.17;;;;;;;1.81;88.41;100316.22;4954089;28;20102;-78
2021/03/19 02:35:52;;;;;;;13.07;9.10;;;;;;;1.83;88.58;100323.19;4953635;28;20047;-78
2021/03/19 02:38:18;;;;;;;11.13;7.93;;;;;;;1.81;88.44;100324.78;4934501;29;20031;-77
2021/03/19 02:40:43;;;;;;;62.13;24.07;;;;;;;1.79;89.09;100316.13;4952096;28;20057;-75
2021/03/19 02:43:08;;;;;;;17.63;10.37;;;;;;;1.94;88.67;100323.94;5009725;28;20034;-78
2021/03/19 02:45:34;;;;;;;10.17;7.17;;;;;;;1.81;88.87;100346.78;4995022;28;20122;-81
2021/03/19 02:47:59;;;;;;;10.60;7.10;;;;;;;1.37;91.27;100346.31;4994786;28;20034;-77
2021/03/19 02:50:25;;;;;;;10.67;7.07;;;;;;;1.26;92.26;100365.00;4994939;28;20481;-76
2021/03/19 02:52:50;;;;;;;9.67;7.07;;;;;;;1.23;92.72;100354.59;4995394;28;20034;-77
2021/03/19 02:55:18;;;;;;;10.37;7.87;;;;;;;1.33;91.54;100328.16;4993978;28;20030;-78
2021/03/19 02:57:43;;;;;;;10.47;7.23;;;;;;;1.60;90.74;100347.06;4994763;28;20038;-75
2021/03/19 03:00:13;;;;;;;9.90;6.97;;;;;;;1.66;89.93;100359.31;4994582;28;20040;-79
2021/03/19 03:02:39;;;;;;;;;;;;;;;1.57;89.90;100352.81;4995162;28;20030;-78
2021/03/19 03:05:05;;;;;;;12.83;7.80;;;;;;;1.53;89.82;100360.97;5009544;28;19990;-77
2021/03/19 03:07:31;;;;;;;10.37;7.27;;;;;;;1.30;90.22;100336.47;5009487;28;20065;-77
2021/03/19 03:09:58;;;;;;;10.70;7.57;;;;;;;1.62;90.27;100378.59;4994410;28;20064;-78
2021/03/19 03:12:24;;;;;;;12.83;9.33;;;;;;;1.75;89.67;100371.03;4994678;28;20038;-77
2021/03/19 03:14:50;;;;;;;10.50;6.83;;;;;;;1.69;89.86;100367.19;4994387;28;20489;-79
2021/03/19 03:17:16;;;;;;;10.40;6.77;;;;;;;1.78;89.88;100373.81;4994438;28;20031;-76
2021/03/19 03:19:42;;;;;;;23.93;11.63;;;;;;;1.43;89.11;100297.50;5009528;28;20379;-81
2021/03/19 03:22:09;;;;;;;12.13;7.97;;;;;;;1.99;89.11;100376.06;4994134;28;20027;-77
2021/03/19 03:24:35;;;;;;;12.73;7.83;;;;;;;2.12;88.18;100390.56;4994673;28;20026;-77
2021/03/19 03:27:01;;;;;;;89.10;28.47;;;;;;;2.03;88.10;100369.53;4994068;28;20126;-77
2021/03/19 03:29:27;;;;;;;52.03;29.93;;;;;;;1.94;88.08;100339.22;4994243;28;20041;-77
2021/03/19 03:31:54;;;;;;;12.53;9.70;;;;;;;2.25;88.07;100387.19;4993911;28;20037;-78
2021/03/19 03:34:20;;;;;;;11.57;7.80;;;;;;;2.26;87.83;100379.63;4992887;28;20449;-77
2021/03/19 03:36:46;;;;;;;10.23;7.90;;;;;;;2.33;87.44;100375.88;4994481;28;20068;-77
2021/03/19 03:39:24;;;;;;;10.47;8.03;;;;;;;2.36;87.04;100390.47;4993814;28;20026;-77
2021/03/19 03:41:50;;;;;;;11.23;8.03;;;;;;;2.18;87.47;100370.59;4994254;28;20050;-77
2021/03/19 03:44:17;;;;;;;13.63;9.37;;;;;;;1.89;87.83;100336.34;4992372;28;20034;-77
2021/03/19 03:46:44;;;;;;;11.77;8.37;;;;;;;2.21;87.67;100380.13;4993042;28;20061;-78
2021/03/19 03:49:11;;;;;;;11.03;8.27;;;;;;;2.15;88.09;100374.59;4994127;28;20038;-77
2021/03/19 03:51:36;;;;;;;10.77;8.40;;;;;;;2.14;88.49;100372.81;4993991;28;20042;-75
2021/03/19 03:54:02;;;;;;;11.13;8.17;;;;;;;2.02;88.43;100371.19;4993673;28;20026;-74
2021/03/19 03:56:28;;;;;;;11.80;7.47;;;;;;;1.95;88.60;100358.81;4992207;28;20061;-77
2021/03/19 03:58:54;;;;;;;9.07;6.77;;;;;;;1.81;89.19;100332.41;4992058;28;20038;-77
2021/03/19 04:01:19;;;;;;;9.93;6.83;;;;;;;2.02;89.37;100373.75;4991010;28;20117;-77
2021/03/19 04:03:46;;;;;;;9.30;6.83;;;;;;;1.96;89.52;100360.59;4991435;28;20104;-78
2021/03/19 04:06:12;;;;;;;10.30;7.20;;;;;;;1.72;89.61;100330.09;4981711;28;20585;-76
2021/03/19 04:08:38;;;;;;;9.70;7.30;;;;;;;2.02;89.91;100376.28;4990675;28;20512;-78
2021/03/19 04:11:08;;;;;;;11.53;8.03;;;;;;;1.84;89.79;100340.25;4990995;28;20189;-75
2021/03/19 04:13:34;;;;;;;12.30;8.00;;;;;;;2.09;89.20;100373.41;4990491;28;20030;-77
2021/03/19 04:16:01;;;;;;;12.27;8.70;;;;;;;2.07;89.20;100357.13;4981820;28;20053;-77
2021/03/19 04:18:27;;;;;;;10.57;7.57;;;;;;;2.18;88.80;100377.34;4990939;28;20510;-77
2021/03/19 04:20:56;;;;;;;15.37;11.00;;;;;;;2.25;88.77;100382.09;4991055;28;20515;-77
2021/03/19 04:23:24;;;;;;;19.58;14.50;;;;;;;2.20;88.56;100380.88;4990968;28;20038;-75
2021/03/19 04:25:50;;;;;;;18.03;15.83;;;;;;;2.09;88.58;100363.22;4990784;28;20076;-77
2021/03/19 04:28:20;;;;;;;9.83;7.40;;;;;;;2.04;89.16;100374.72;4990927;28;20406;-75
2021/03/19 04:30:46;;;;;;;11.95;9.27;;;;;;;2.04;89.58;100378.94;4990876;28;20050;-77
2021/03/19 04:33:17;;;;;;;10.47;6.67;;;;;;;2.15;89.47;100385.66;4992659;28;20128;-77
2021/03/19 04:35:43;;;;;;;9.50;7.77;;;;;;;2.06;89.40;100385.91;5007819;28;20035;-78
2021/03/19 04:38:15;;;;;;;27.33;21.37;;;;;;;2.09;89.12;100380.13;4992742;28;20038;-77
2021/03/19 04:40:46;;;;;;;19.90;15.80;;;;;;;1.96;89.43;100368.22;4992503;28;20034;-75
2021/03/19 04:43:14;;;;;;;19.73;15.77;;;;;;;2.03;89.68;100380.63;4993370;28;20042;-77
2021/03/19 04:45:42;;;;;;;16.07;14.40;;;;;;;1.92;89.85;100374.78;4991697;28;20061;-74
2021/03/19 04:48:08;;;;;;;19.87;16.67;;;;;;;1.78;90.41;100353.44;4992938;28;20034;-75
2021/03/19 04:50:34;;;;;;;24.53;20.27;;;;;;;1.90;89.90;100376.31;4992271;28;20030;-76
2021/03/19 04:53:00;;;;;;;25.23;21.30;;;;;;;1.87;90.56;100375.22;4978302;28;20038;-80
2021/03/19 04:55:26;;;;;;;20.33;17.43;;;;;;;1.65;90.63;100329.56;4975322;28;20030;-78
2021/03/19 04:57:52;;;;;;;13.93;11.53;;;;;;;1.80;90.39;100355.22;4973019;28;20030;-77
2021/03/19 05:00:18;;;;;;;23.17;19.27;;;;;;;1.97;90.66;100380.19;4975540;28;20035;-77
2021/03/19 05:02:45;;;;;;;50.33;28.33;;;;;;;2.10;90.21;100381.91;4985605;28;20041;-78
2021/03/19 05:05:33;;;;;;;73.10;35.67;;;;;;;2.17;89.79;100378.13;5005943;28;20030;-77
2021/03/19 05:08:00;;;;;;;28.43;19.13;;;;;;;2.17;89.95;100381.56;4987427;28;20047;-77
2021/03/19 05:10:29;;;;;;;20.60;14.73;;;;;;;2.30;89.94;100393.47;4984271;28;20034;-77
2021/03/19 05:12:55;;;;;;;14.32;11.18;;;;;;;2.37;89.60;100389.69;4992222;28;20037;-76
2021/03/19 05:15:23;;;;;;;15.43;12.37;;;;;;;2.42;89.60;100381.56;4986975;28;20114;-76
2021/03/19 05:17:48;;;;;;;11.00;9.27;;;;;;;2.39;89.14;100370.28;4994294;28;20047;-77
2021/03/19 05:20:15;;;;;;;10.67;8.93;;;;;;;2.43;88.49;100374.84;4979946;28;20037;-78
2021/03/19 05:22:41;;;;;;;12.37;8.83;;;;;;;2.61;88.76;100385.38;4992241;28;20026;-76
2021/03/19 05:25:13;;;;;;;24.80;16.27;;;;;;;2.68;88.69;100384.09;4992243;28;20044;-78
2021/03/19 05:27:39;;;;;;;14.83;10.77;;;;;;;2.79;88.41;100387.38;4991937;28;20061;-77
2021/03/19 05:30:06;;;;;;;11.97;8.10;;;;;;;2.86;88.07;100409.97;4992415;28;20058;-77
2021/03/19 05:32:32;;;;;;;12.67;9.30;;;;;;;2.57;88.14;100365.56;4991702;28;20037;-76
2021/03/19 05:34:58;;;;;;;11.97;8.27;;;;;;;2.54;88.58;100404.47;4992198;28;20105;-77
2021/03/19 05:37:23;;;;;;;12.17;7.93;;;;;;;2.41;89.25;100394.22;4992066;28;20034;-77
2021/03/19 05:39:49;;;;;;;10.93;7.53;;;;;;;2.32;89.81;100406.31;4991908;28;20046;-78
2021/03/19 05:42:23;;;;;;;11.37;8.50;;;;;;;2.25;90.30;100410.09;4991730;28;20146;-75
2021/03/19 05:44:54;;;;;;;12.63;9.30;;;;;;;2.17;91.05;100399.41;4990595;28;20095;-76
2021/03/19 05:47:20;;;;;;;11.13;8.13;;;;;;;2.16;91.38;100405.25;5009153;28;20503;-76
2021/03/19 05:49:46;;;;;;;12.63;9.10;;;;;;;2.10;91.25;100408.25;4992627;28;20030;-77
2021/03/19 05:52:21;;;;;;;11.73;8.70;;;;;;;2.23;91.79;100404.91;5009458;28;20038;-76
2021/03/19 05:54:48;;;;;;;12.90;8.97;;;;;;;2.20;92.30;100403.81;4992908;28;20401;-76
2021/03/19 05:57:16;;;;;;;10.93;7.90;;;;;;;2.30;92.74;100411.31;5009386;28;20045;-77
2021/03/19 05:59:47;;;;;;;19.40;15.03;;;;;;;2.33;92.38;100408.09;4992517;28;20038;-74
2021/03/19 06:02:24;;;;;;;13.77;9.63;;;;;;;2.36;92.09;100413.41;4989354;28;20038;-77
2021/03/19 06:05:08;;;;;;;19.10;15.13;;;;;;;2.46;92.38;100415.78;4973115;28;20042;-74
2021/03/19 06:07:53;;;;;;;15.63;12.17;;;;;;;2.58;92.00;100411.53;4989040;28;20503;-77
2021/03/19 06:10:19;;;;;;;13.60;10.93;;;;;;;2.66;91.98;100423.94;4988945;28;20506;-76
2021/03/19 06:12:50;;;;;;;20.30;14.50;;;;;;;2.81;91.93;100418.97;4989454;28;20080;-76
2021/03/19 06:15:43;;;;;;;14.27;9.17;;;;;;;2.81;90.82;100422.41;4989290;28;20033;-77
2021/03/19 06:18:29;;;;;;;30.37;23.80;;;;;;;2.86;91.26;100415.94;4893450;29;20091;-78
2021/03/19 06:20:58;;;;;;;43.40;23.63;;;;;;;2.81;91.44;100401.13;4893672;29;20044;-76
2021/03/19 06:23:25;;;;;;;120.28;41.15;;;;;;;2.91;91.13;100416.25;4893359;29;20112;-76
2021/03/19 06:26:04;;;;;;;60.00;26.60;;;;;;;2.97;91.16;100428.53;4862376;29;20040;-77
2021/03/19 06:28:37;;;;;;;74.90;29.50;;;;;;;3.01;91.23;100426.28;4877636;29;20037;-77
2021/03/19 06:31:17;;;;;;;33.87;18.70;;;;;;;3.07;91.09;100436.88;4893299;29;20119;-77
2021/03/19 06:33:43;;;;;;;63.72;24.90;;;;;;;2.88;91.05;100393.13;4893638;29;20127;-77
2021/03/19 06:36:19;;;;;;;23.40;13.70;;;;;;;2.93;90.99;100401.94;4893289;29;20045;-77
2021/03/19 06:38:49;;;;;;;24.40;20.20;;;;;;;3.16;90.91;100435.75;4895700;29;20072;-78
2021/03/19 06:41:20;;;;;;;;;;;;;;;3.24;91.08;100444.78;4912339;29;20447;-78
2021/03/19 06:43:46;;;;;;;16.17;9.27;;;;;;;3.34;91.36;100456.47;4912398;29;19919;-78
2021/03/19 06:46:19;;;;;;;9.90;7.50;;;;;;;3.42;90.46;100457.00;4912213;29;20043;-79
2021/03/19 06:49:00;;;;;;;12.07;8.73;;;;;;;3.36;89.97;100449.81;4896530;29;20051;-78
2021/03/19 06:51:42;;;;;;;11.63;8.17;;;;;;;3.44;90.28;100441.00;4912158;29;20120;-79
2021/03/19 06:54:10;;;;;;;11.90;8.53;;;;;;;3.54;90.00;100462.91;4919303;28;20047;-78
2021/03/19 06:56:37;;;;;;;10.57;8.67;;;;;;;3.56;89.87;100449.44;4988623;28;20030;-77
2021/03/19 06:59:22;;;;;;;11.97;8.70;;;;;;;3.57;88.96;100424.78;4991246;28;20034;-77
2021/03/19 07:01:48;;;;;;;11.67;8.37;;;;;;;3.80;89.07;100463.66;4991443;28;20406;-77
2021/03/19 07:04:48;;;;;;;14.48;8.77;;;;;;;3.92;88.45;100459.34;4993448;28;20050;-77
2021/03/19 07:07:32;;;;;;;;;;;;;;;4.00;87.72;100468.38;5010341;28;20041;-77
2021/03/19 07:10:42;;;;;;;13.80;8.90;;;;;;;3.88;87.62;100478.69;4994421;28;20424;-78
2021/03/19 07:13:30;;;;;;;13.30;9.38;;;;;;;3.94;87.62;100477.31;4993325;28;20050;-77
2021/03/19 07:16:10;;;;;;;17.95;10.05;;;;;;;4.07;87.26;100481.53;4994677;28;20030;-77
2021/03/19 07:19:12;;;;;;;46.22;22.45;;;;;;;4.11;87.28;100480.94;4994200;28;20034;-77
2021/03/19 07:22:10;;;;;;;37.35;21.05;;;;;;;4.12;87.63;100482.72;5009533;28;20113;-78
2021/03/19 07:24:48;;;;;;;61.97;49.38;;;;;;;4.05;88.05;100482.31;4993007;28;20046;-77
2021/03/19 07:27:52;;;;;;;67.38;52.83;;;;;;;4.07;87.94;100481.53;4994185;28;20552;-77
2021/03/19 07:30:30;;;;;;;46.53;26.08;;;;;;;4.16;87.17;100487.22;5009727;28;20031;-78
2021/03/19 07:33:01;;;;;;;45.97;27.92;;;;;;;4.19;87.19;100495.09;4994166;28;20405;-78
2021/03/19 07:36:09;;;;;;;67.93;34.08;;;;;;;4.23;87.01;100497.03;4994243;28;20121;-78
2021/03/19 07:38:58;;;;;;;19.48;15.23;;;;;;;4.32;87.17;100496.75;4984399;28;20117;-78
2021/03/19 07:41:46;;;;;;;25.45;13.32;;;;;;;4.38;86.83;100502.22;4993961;28;20046;-78
2021/03/19 07:44:53;;;;;;;113.43;41.25;;;;;;;4.42;87.24;100500.75;5009074;28;20594;-78
2021/03/19 07:47:30;;;;;;;54.13;27.92;;;;;;;4.22;86.32;100472.28;4914888;29;20040;-77
2021/03/19 07:50:15;;;;;;;52.70;23.20;;;;;;;4.51;85.66;100511.53;4914841;29;20036;-77
2021/03/19 07:52:46;;;;;;;25.42;13.38;;;;;;;4.56;85.36;100516.94;4899043;29;20048;-77
2021/03/19 07:55:42;;;;;;;16.00;10.63;;;;;;;4.46;85.64;100495.03;4914982;29;20552;-78
2021/03/19 07:58:28;;;;;;;14.23;9.32;;;;;;;4.42;85.29;100493.09;4914537;29;20123;-78
2021/03/19 08:01:17;;;;;;;17.27;10.77;;;;;;;4.56;84.88;100516.94;4898873;29;20107;-77
2021/03/19 08:03:48;;;;;;;12.45;9.15;;;;;;;4.58;85.56;100531.59;4914572;29;20036;-77
2021/03/19 08:06:22;;;;;;;11.20;8.38;;;;;;;4.41;85.49;100479.44;4914588;29;20033;-77
2021/03/19 08:08:57;;;;;;;13.90;8.80;;;;;;;4.42;85.29;100478.63;4914092;29;20111;-76
2021/03/19 08:11:45;;;;;;;10.88;7.18;;;;;;;4.58;83.80;100506.03;4913866;29;20040;-77
2021/03/19 08:14:35;;;;;;;19.83;10.80;;;;;;;4.50;84.22;100505.56;4903185;29;20093;-76
2021/03/19 08:17:03;;;;;;;12.45;8.93;;;;;;;4.58;84.70;100512.81;4913939;29;20424;-77
2021/03/19 08:19:46;;;;;;;20.13;11.98;;;;;;;4.33;85.56;100499.38;4914221;29;20055;-77
2021/03/19 08:22:13;;;;;;;16.17;10.35;;;;;;;4.38;86.06;100518.44;4913930;29;20038;-77
2021/03/19 08:24:48;;;;;;;15.68;10.98;;;;;;;4.37;87.18;100521.81;4974320;28;20046;-77
2021/03/19 08:27:41;;;;;;;20.25;12.38;;;;;;;4.34;87.25;100521.59;5008444;28;20161;-77
2021/03/19 08:30:45;;;;;;;15.10;10.68;;;;;;;4.35;85.35;100528.50;4992067;28;20034;-76
2021/03/19 08:33:19;;;;;;;14.32;10.90;;;;;;;4.08;85.98;100498.66;4914312;29;20041;-77
2021/03/19 08:36:05;;;;;;;14.57;10.90;;;;;;;4.16;85.46;100510.22;4913869;29;20040;-77
2021/03/19 08:38:31;;;;;;;15.65;10.60;;;;;;;4.24;85.92;100531.13;4913923;29;20060;-76
2021/03/19 08:41:00;;;;;;;14.13;9.90;;;;;;;4.22;86.53;100525.94;4913489;29;20060;-77
2021/03/19 08:43:41;;;;;;;17.85;13.77;;;;;;;4.27;86.30;100541.56;4913819;29;20148;-80
2021/03/19 08:46:09;;;;;;;12.90;9.95;;;;;;;4.26;85.52;100538.16;4913841;29;20036;-77
2021/03/19 08:48:46;;;;;;;11.38;8.20;;;;;;;3.82;85.96;100547.25;4897859;29;20516;-77
2021/03/19 08:51:28;;;;;;;10.35;8.02;;;;;;;3.70;87.61;100532.03;4911172;29;20535;-78
2021/03/19 08:54:12;;;;;;;11.23;9.15;;;;;;;3.76;87.50;100544.28;4913862;29;20528;-77
2021/03/19 08:56:40;;;;;;;11.00;7.68;;;;;;;3.76;87.64;100540.88;4913529;29;20032;-77
2021/03/19 08:59:05;;;;;;;11.77;8.63;;;;;;;3.71;86.78;100536.34;4897844;29;20095;-77
2021/03/19 09:01:55;;;;;;;12.57;9.60;;;;;;;3.81;87.22;100544.59;4913533;29;20040;-76
2021/03/19 09:04:40;;;;;;;;;;;;;;;3.81;87.39;100550.59;4914109;29;20071;-77
2021/03/19 09:07:31;;;;;;;11.40;8.20;;;;;;;3.50;86.01;100512.84;4857121;29;19962;-76
2021/03/19 09:10:03;;;;;;;11.87;8.93;;;;;;;3.68;87.11;100540.38;4873137;29;20093;-76
2021/03/19 09:12:31;;;;;;;14.17;10.10;;;;;;;3.72;87.36;100538.09;4913753;29;20063;-76
2021/03/19 09:15:15;;;;;;;11.13;8.67;;;;;;;3.71;87.38;100541.47;4897734;29;20131;-76
2021/03/19 09:17:43;;;;;;;9.73;7.40;;;;;;;3.69;85.84;100537.91;4912934;29;20047;-78
2021/03/19 09:20:30;;;;;;;11.27;8.37;;;;;;;3.53;87.65;100540.25;4913122;29;20171;-76
2021/03/19 09:23:27;;;;;;;13.80;10.50;;;;;;;3.11;91.14;100544.25;4913484;29;20057;-75
2021/03/19 09:26:14;;;;;;;13.23;10.03;;;;;;;2.96;91.04;100529.66;4843438;29;20426;-76
2021/03/19 09:28:56;;;;;;;22.33;13.53;;;;;;;3.01;91.55;100538.50;4820368;29;20042;-75
2021/03/19 09:31:25;;;;;;;20.83;13.17;;;;;;;3.13;92.43;100537.56;4820495;29;20046;-76
2021/03/19 09:33:51;;;;;;;14.50;10.47;;;;;;;3.03;91.77;100531.84;4820631;29;20042;-76
2021/03/19 09:37:04;;;;;;;16.57;11.60;;;;;;;2.99;91.45;100534.06;4817001;29;20045;-74
2021/03/19 09:39:54;;;;;;;17.40;11.97;;;;;;;2.78;93.35;100524.19;4765719;30;20039;-74
2021/03/19 09:42:19;;;;;;;15.98;10.85;;;;;;;2.85;92.53;100534.00;4766023;30;20437;-77
2021/03/19 09:44:48;;;;;;;12.50;9.47;;;;;;;2.83;92.25;100529.56;4805287;29;20057;-77
2021/03/19 09:47:16;;;;;;;13.40;11.07;;;;;;;2.80;91.46;100524.28;4820172;29;20573;-77
2021/03/19 09:49:41;;;;;;;13.20;9.87;;;;;;;2.75;92.36;100516.31;4820077;29;20042;-76
2021/03/19 09:52:15;;;;;;;15.07;10.30;;;;;;;2.87;92.37;100529.91;4820084;29;20047;-76
2021/03/19 09:54:42;;;;;;;15.53;10.67;;;;;;;2.86;92.51;100519.59;4820172;29;20663;-77
2021/03/19 09:57:29;;;;;;;11.80;8.80;;;;;;;2.81;92.70;100533.72;4820090;29;20054;-76
2021/03/19 09:59:59;;;;;;;12.57;8.80;;;;;;;2.73;92.65;100541.72;4820229;29;20046;-76
2021/03/19 10:02:39;;;;;;;11.47;8.27;;;;;;;2.72;92.36;100513.56;4843348;29;20075;-76
2021/03/19 10:05:08;;;;;;;12.35;8.85;;;;;;;2.58;93.08;100510.06;4886996;29;20048;-75
2021/03/19 10:07:35;;;;;;;14.53;8.60;;;;;;;2.85;93.28;100540.78;4931396;29;20036;-75
2021/03/19 10:10:01;;;;;;;13.23;9.57;;;;;;;2.83;93.05;100525.38;4931479;29;20035;-76
2021/03/19 10:12:37;;;;;;;12.87;8.40;;;;;;;2.96;93.59;100538.97;4931382;29;20032;-76
2021/03/19 10:15:19;;;;;;;11.67;8.33;;;;;;;2.91;94.13;100541.19;4939460;28;20495;-76
2021/03/19 10:17:56;;;;;;;11.70;8.10;;;;;;;2.74;94.11;100486.50;4991617;28;20045;-78
2021/03/19 10:20:30;;;;;;;9.27;7.17;;;;;;;3.11;92.34;100541.69;4991847;28;20101;-77
2021/03/19 10:23:09;;;;;;;9.30;7.33;;;;;;;2.99;94.23;100508.56;4991751;28;20034;-77
2021/03/19 10:25:45;;;;;;;;;;;;;;;3.20;92.20;100540.66;4991040;28;20073;-79
2021/03/19 10:28:16;;;;;;;9.93;7.50;;;;;;;3.27;93.03;100552.13;5006886;28;19956;-78
2021/03/19 10:30:49;;;;;;;10.20;6.73;;;;;;;3.24;92.56;100522.22;4990902;28;21325;-79
2021/03/19 10:33:23;;;;;;;8.03;5.80;;;;;;;3.20;90.95;100520.25;4991807;28;20030;-77
2021/03/19 10:35:59;;;;;;;7.97;5.70;;;;;;;3.21;90.82;100519.44;4991014;28;20382;-77
2021/03/19 10:38:48;;;;;;;7.67;5.20;;;;;;;3.28;90.63;100538.59;4994373;28;20022;-77
2021/03/19 10:41:32;;;;;;;9.77;6.97;;;;;;;3.36;92.33;100532.31;5010043;28;20425;-78
2021/03/19 10:44:23;;;;;;;12.77;8.10;;;;;;;3.17;91.41;100499.59;4995482;28;20073;-78
2021/03/19 10:46:55;;;;;;;11.13;8.63;;;;;;;3.03;91.76;100457.00;4995024;28;20053;-77
2021/03/19 10:49:39;;;;;;;11.07;7.30;;;;;;;3.49;91.27;100528.94;4994721;28;20058;-77
2021/03/19 10:52:24;;;;;;;8.87;6.40;;;;;;;3.46;89.96;100525.31;4995282;28;20034;-77
2021/03/19 10:54:50;;;;;;;6.93;4.60;;;;;;;3.40;90.09;100510.44;4994846;28;20037;-77
2021/03/19 10:57:25;;;;;;;6.53;5.03;;;;;;;3.52;90.26;100515.50;4994893;28;20037;-78
2021/03/19 10:59:52;;;;;;;10.70;7.50;;;;;;;3.44;91.25;100532.88;4991853;28;20117;-77
2021/03/19 11:02:30;;;;;;;11.37;8.30;;;;;;;3.39;92.42;100534.22;4994533;28;20117;-77
2021/03/19 11:04:55;;;;;;;10.97;7.97;;;;;;;3.40;90.93;100533.41;4992810;28;20030;-77
2021/03/19 11:07:28;;;;;;;9.83;7.47;;;;;;;3.44;90.95;100530.31;5010098;28;20460;-75
2021/03/19 11:10:26;;;;;;;12.00;8.50;;;;;;;3.24;92.04;100534.09;4994931;28;20041;-76
2021/03/19 11:13:17;;;;;;;13.27;9.70;;;;;;;3.43;93.57;100531.09;4995081;28;20445;-76
2021/03/19 11:15:45;;;;;;;13.20;9.53;;;;;;;3.60;91.64;100528.75;4994904;28;20409;-77
2021/03/19 11:18:34;;;;;;;12.63;9.37;;;;;;;3.67;91.47;100520.72;4994924;28;20089;-76
2021/03/19 11:21:08;;;;;;;11.83;8.93;;;;;;;3.50;91.42;100519.59;4994688;28;20490;-77
2021/03/19 11:23:39;;;;;;;13.13;9.63;;;;;;;3.43;92.18;100514.88;4995009;28;20026;-78
2021/03/19 11:26:26;;;;;;;12.37;9.00;;;;;;;3.39;91.79;100524.03;4994334;28;20030;-79
2021/03/19 11:29:14;;;;;;;13.87;10.20;;;;;;;3.62;92.13;100517.88;4994104;28;20475;-79
2021/03/19 11:31:57;;;;;;;15.00;10.47;;;;;;;3.71;91.37;100513.38;4992285;28;20034;-76
2021/03/19 11:34:41;;;;;;;15.67;10.30;;;;;;;3.71;91.14;100517.59;4993706;28;20034;-77
2021/03/19 11:37:18;;;;;;;13.70;10.27;;;;;;;3.77;89.73;100520.53;4993915;28;20026;-77
2021/03/19 11:39:53;;;;;;;14.67;11.50;;;;;;;3.66;90.99;100517.28;4994187;28;20409;-76
2021/03/19 11:42:28;;;;;;;16.33;11.88;;;;;;;3.48;91.14;100476.13;4994342;28;20046;-77
2021/03/19 11:44:58;;;;;;;18.27;15.77;;;;;;;3.83;90.46;100520.94;4994680;28;20041;-76
2021/03/19 11:47:28;;;;;;;17.20;14.00;;;;;;;3.86;89.71;100516.03;4994325;28;20026;-76
2021/03/19 11:50:12;;;;;;;16.00;12.47;;;;;;;3.98;90.11;100509.94;4994313;28;20453;-77
2021/03/19 11:52:37;;;;;;;13.38;10.25;;;;;;;4.08;89.28;100503.75;4994161;28;20121;-76
2021/03/19 11:55:04;;;;;;;12.00;10.02;;;;;;;3.78;89.31;100455.91;4993623;28;20548;-76
2021/03/19 11:57:29;;;;;;;12.77;9.93;;;;;;;4.12;88.61;100503.16;4993605;28;20026;-77
2021/03/19 11:59:55;;;;;;;13.43;10.32;;;;;;;4.17;89.81;100501.78;4993773;28;20493;-77
2021/03/19 12:02:27;;;;;;;15.18;10.65;;;;;;;4.16;88.65;100500.91;4993800;28;20461;-77